createdAt,value
2022-11-30T00:00:06.850Z,27.07
2022-11-30T00:03:08.913Z,25.93
2022-11-30T00:06:13.493Z,26.33
2022-11-30T00:09:15.529Z,25.80
2022-11-30T00:12:18.260Z,25.43
2022-11-30T00:15:20.688Z,26.60
2022-11-30T00:18:23.098Z,27.57
2022-11-30T00:21:24.969Z,26.00
2022-11-30T00:24:27.679Z,25.40
2022-11-30T00:27:30.481Z,25.60
2022-11-30T00:30:32.536Z,25.37
2022-11-30T00:33:36.187Z,26.90
2022-11-30T00:36:38.215Z,26.23
2022-11-30T00:39:40.068Z,28.00
2022-11-30T00:42:43.123Z,28.77
2022-11-30T00:45:45.109Z,25.97
2022-11-30T00:48:47.198Z,27.17
2022-11-30T00:51:49.095Z,28.13
2022-11-30T00:54:51.319Z,28.07
2022-11-30T00:57:53.593Z,27.17
2022-11-30T01:00:55.562Z,27.17
2022-11-30T01:03:57.894Z,26.70
2022-11-30T01:06:59.798Z,27.77
2022-11-30T01:10:01.785Z,27.63
2022-11-30T01:13:04.120Z,26.10
2022-11-30T01:16:11.919Z,27.87
2022-11-30T01:19:14.359Z,27.20
2022-11-30T01:22:16.232Z,27.80
2022-11-30T01:25:18.465Z,26.20
2022-11-30T01:28:20.416Z,28.03
2022-11-30T01:31:27.062Z,29.73
2022-11-30T01:34:28.900Z,28.03
2022-11-30T01:37:30.860Z,27.93
2022-11-30T01:40:32.770Z,26.63
2022-11-30T01:43:45.268Z,28.60
2022-11-30T01:46:55.249Z,26.57
2022-11-30T01:50:18.201Z,27.17
2022-11-30T01:53:20.152Z,27.73
2022-11-30T01:56:22.249Z,29.13
2022-11-30T01:59:25.159Z,30.27
2022-11-30T02:02:50.818Z,28.50
2022-11-30T02:05:53.331Z,27.20
2022-11-30T02:08:55.694Z,28.63
2022-11-30T02:11:57.695Z,27.43
2022-11-30T02:15:16.285Z,26.33
2022-11-30T02:19:01.337Z,25.40
2022-11-30T02:22:26.918Z,26.90
2022-11-30T02:25:35.674Z,24.63
2022-11-30T02:29:03.765Z,25.80
2022-11-30T02:32:20.041Z,23.57
2022-11-30T02:35:27.233Z,25.97
2022-11-30T02:38:29.883Z,27.00
2022-11-30T02:41:38.149Z,26.77
2022-11-30T02:44:43.829Z,26.23
2022-11-30T02:48:00.670Z,26.93
2022-11-30T02:51:05.179Z,27.57
2022-11-30T02:54:08.242Z,26.80
2022-11-30T02:57:10.125Z,27.13
2022-11-30T03:00:14.421Z,26.73
2022-11-30T03:03:16.614Z,27.30
2022-11-30T03:06:18.552Z,27.80
2022-11-30T03:09:20.439Z,27.47
2022-11-30T03:12:22.739Z,26.60
2022-11-30T03:15:24.943Z,28.23
2022-11-30T03:18:27.251Z,25.63
2022-11-30T03:21:29.127Z,28.27
2022-11-30T03:24:31.290Z,28.23
2022-11-30T03:27:33.163Z,28.53
2022-11-30T03:30:35.194Z,28.63
2022-11-30T03:33:37.104Z,27.83
2022-11-30T03:36:39.105Z,28.00
2022-11-30T03:39:41.401Z,28.67
2022-11-30T03:42:43.787Z,26.23
2022-11-30T03:45:46.905Z,27.50
2022-11-30T03:48:48.829Z,30.17
2022-11-30T03:51:50.899Z,27.60
2022-11-30T03:54:52.879Z,26.97
2022-11-30T03:57:54.712Z,28.07
2022-11-30T04:01:08.919Z,29.73
2022-11-30T04:04:11.674Z,30.70
2022-11-30T04:07:13.662Z,28.73
2022-11-30T04:10:15.508Z,30.67
2022-11-30T04:13:18.421Z,30.53
2022-11-30T04:16:20.315Z,29.00
2022-11-30T04:19:23.177Z,27.33
2022-11-30T04:22:25.027Z,28.40
2022-11-30T04:25:27.009Z,28.97
2022-11-30T04:28:28.939Z,29.17
2022-11-30T04:31:31.377Z,29.67
2022-11-30T04:34:33.609Z,29.47
2022-11-30T04:37:45.153Z,29.70
2022-11-30T04:40:47.073Z,30.13
2022-11-30T04:43:49.063Z,32.23
2022-11-30T04:46:50.972Z,31.33
2022-11-30T04:49:53.137Z,30.90
2022-11-30T04:52:55.114Z,30.73
2022-11-30T04:55:57.125Z,31.67
2022-11-30T04:58:59.465Z,32.10
2022-11-30T05:02:01.751Z,31.33
2022-11-30T05:05:03.824Z,30.87
2022-11-30T05:08:05.874Z,32.63
2022-11-30T05:11:07.703Z,29.93
2022-11-30T05:14:10.198Z,30.03
2022-11-30T05:17:12.051Z,30.40
2022-11-30T05:20:14.889Z,29.43
2022-11-30T05:23:17.359Z,30.27
2022-11-30T05:26:19.345Z,30.03
2022-11-30T05:29:21.240Z,30.10
2022-11-30T05:32:23.145Z,29.93
2022-11-30T05:35:25.292Z,31.63
2022-11-30T05:38:27.267Z,29.43
2022-11-30T05:41:29.158Z,30.03
2022-11-30T05:44:31.139Z,30.97
2022-11-30T05:47:33.209Z,31.27
2022-11-30T05:50:35.200Z,30.23
2022-11-30T05:53:37.250Z,31.17
2022-11-30T05:56:39.155Z,30.77
2022-11-30T05:59:41.443Z,29.67
2022-11-30T06:02:43.486Z,32.13
2022-11-30T06:05:45.474Z,31.67
2022-11-30T06:08:48.877Z,30.87
2022-11-30T06:11:51.264Z,30.60
2022-11-30T06:14:53.552Z,28.60
2022-11-30T06:17:56.550Z,29.57
2022-11-30T06:21:03.073Z,31.33
2022-11-30T06:24:05.199Z,29.70
2022-11-30T06:27:07.151Z,29.27
2022-11-30T06:30:10.018Z,29.43
2022-11-30T06:33:12.262Z,30.40
2022-11-30T06:36:14.198Z,29.27
2022-11-30T06:39:16.162Z,28.60
2022-11-30T06:42:19.817Z,30.13
2022-11-30T06:45:22.316Z,29.03
2022-11-30T06:48:24.566Z,29.67
2022-11-30T06:51:26.483Z,29.97
2022-11-30T06:54:28.905Z,29.27
2022-11-30T06:57:31.208Z,29.73
2022-11-30T07:00:34.216Z,28.87
2022-11-30T07:03:36.598Z,27.60
2022-11-30T07:06:38.926Z,28.20
2022-11-30T07:09:40.759Z,28.83
2022-11-30T07:12:42.715Z,29.43
2022-11-30T07:15:45.148Z,29.57
2022-11-30T07:18:47.193Z,31.60
2022-11-30T07:21:49.178Z,30.10
2022-11-30T07:25:10.009Z,30.90
2022-11-30T07:28:11.810Z,30.97
2022-11-30T07:31:16.676Z,29.70
2022-11-30T07:34:19.638Z,29.93
2022-11-30T07:37:21.947Z,34.93
2022-11-30T07:40:23.779Z,29.67
2022-11-30T07:43:25.685Z,31.13
2022-11-30T07:46:28.056Z,30.67
2022-11-30T07:49:30.154Z,29.67
2022-11-30T07:52:32.008Z,29.70
2022-11-30T07:55:34.238Z,33.30
2022-11-30T07:58:36.689Z,30.50
2022-11-30T08:01:38.778Z,28.37
2022-11-30T08:04:40.753Z,30.20
2022-11-30T08:07:46.120Z,30.97
2022-11-30T08:10:48.031Z,30.97
2022-11-30T08:13:50.175Z,29.90
2022-11-30T08:16:52.115Z,29.20
2022-11-30T08:19:54.154Z,27.93
2022-11-30T08:22:56.066Z,28.83
2022-11-30T08:26:03.258Z,27.97
2022-11-30T08:29:05.249Z,26.33
2022-11-30T08:32:07.640Z,29.07
2022-11-30T08:35:09.677Z,30.20
2022-11-30T08:38:11.669Z,29.40
2022-11-30T08:41:15.419Z,28.47
2022-11-30T08:44:17.408Z,26.87
2022-11-30T08:47:19.375Z,26.30
2022-11-30T08:50:21.646Z,25.70
2022-11-30T08:53:23.474Z,25.83
2022-11-30T08:56:25.414Z,24.63
2022-11-30T08:59:27.298Z,29.07
2022-11-30T09:02:29.339Z,26.33
2022-11-30T09:05:31.350Z,27.93
2022-11-30T09:08:39.468Z,27.70
2022-11-30T09:11:43.225Z,27.93
2022-11-30T09:14:47.746Z,27.77
2022-11-30T09:17:54.246Z,28.37
2022-11-30T09:21:06.665Z,27.50
2022-11-30T09:24:08.616Z,26.17
2022-11-30T09:27:10.555Z,28.17
2022-11-30T09:30:12.975Z,27.17
2022-11-30T09:33:14.903Z,27.90
2022-11-30T09:36:19.763Z,27.50
2022-11-30T09:39:21.924Z,26.30
2022-11-30T09:42:44.011Z,25.93
2022-11-30T09:45:53.690Z,26.93
2022-11-30T09:49:30.284Z,27.13
2022-11-30T09:52:36.383Z,26.93
2022-11-30T09:55:41.705Z,27.23
2022-11-30T09:58:50.786Z,24.97
2022-11-30T10:01:56.964Z,25.83
2022-11-30T10:05:00.049Z,25.37
2022-11-30T10:08:50.732Z,26.17
2022-11-30T10:12:22.176Z,25.43
2022-11-30T10:16:16.556Z,24.83
2022-11-30T10:19:48.147Z,23.17
2022-11-30T10:23:11.409Z,23.63
2022-11-30T10:26:17.195Z,25.63
2022-11-30T10:29:22.599Z,26.37
2022-11-30T10:32:31.132Z,25.00
2022-11-30T10:35:43.569Z,23.97
2022-11-30T10:38:51.760Z,23.57
2022-11-30T10:42:16.514Z,22.60
2022-11-30T10:45:21.786Z,22.43
2022-11-30T10:48:34.413Z,23.60
2022-11-30T10:51:38.169Z,21.90
2022-11-30T10:54:40.025Z,23.40
2022-11-30T10:57:42.904Z,23.73
2022-11-30T11:01:02.778Z,22.77
2022-11-30T11:04:11.092Z,23.43
2022-11-30T11:07:14.604Z,24.37
2022-11-30T11:10:21.536Z,23.80
2022-11-30T11:13:40.955Z,24.37
2022-11-30T11:17:17.750Z,21.63
2022-11-30T11:20:42.880Z,20.77
2022-11-30T11:23:46.139Z,23.20
2022-11-30T11:26:51.993Z,23.27
2022-11-30T11:30:06.480Z,22.13
2022-11-30T11:33:12.656Z,22.27
2022-11-30T11:36:16.747Z,21.40
2022-11-30T11:39:26.422Z,23.40
2022-11-30T11:42:32.101Z,22.30
2022-11-30T11:45:37.917Z,22.37
2022-11-30T11:48:42.336Z,22.10
2022-11-30T11:51:45.832Z,23.23
2022-11-30T11:55:25.316Z,23.93
2022-11-30T11:58:42.195Z,23.43
2022-11-30T12:01:49.698Z,21.40
2022-11-30T12:04:54.973Z,22.40
2022-11-30T12:08:06.011Z,21.17
2022-11-30T12:11:37.349Z,21.93
2022-11-30T12:14:39.318Z,21.10
2022-11-30T12:17:59.554Z,21.23
2022-11-30T12:21:14.835Z,21.83
2022-11-30T12:24:28.130Z,20.03
2022-11-30T12:27:53.644Z,20.03
2022-11-30T12:31:14.895Z,19.70
2022-11-30T12:34:49.295Z,19.90
2022-11-30T12:38:10.998Z,21.20
2022-11-30T12:41:22.084Z,19.77
2022-11-30T12:44:45.654Z,19.30
2022-11-30T12:48:12.358Z,18.67
2022-11-30T12:51:39.108Z,18.13
2022-11-30T12:55:31.673Z,20.40
2022-11-30T12:58:49.896Z,20.47
2022-11-30T13:02:19.881Z,19.97
2022-11-30T13:05:30.713Z,21.20
2022-11-30T13:08:46.952Z,20.23
2022-11-30T13:11:55.563Z,21.63
2022-11-30T13:15:00.156Z,21.83
2022-11-30T13:18:02.890Z,21.80
2022-11-30T13:21:33.369Z,21.80
2022-11-30T13:24:40.060Z,19.83
2022-11-30T13:27:47.458Z,20.03
2022-11-30T13:31:09.044Z,20.07
2022-11-30T13:34:27.470Z,18.57
2022-11-30T13:37:29.379Z,19.47
2022-11-30T13:40:32.060Z,19.17
2022-11-30T13:43:48.117Z,18.40
2022-11-30T13:46:53.332Z,19.03
2022-11-30T13:50:01.222Z,19.53
2022-11-30T13:53:03.832Z,20.10
2022-11-30T13:56:19.133Z,19.83
2022-11-30T13:59:24.484Z,21.77
2022-11-30T14:02:52.603Z,21.20
2022-11-30T14:05:58.235Z,19.83
2022-11-30T14:09:00.184Z,22.40
2022-11-30T14:12:31.362Z,21.93
2022-11-30T14:15:39.346Z,24.00
2022-11-30T14:18:43.473Z,21.33
2022-11-30T14:21:45.399Z,23.03
2022-11-30T14:24:49.174Z,22.00
2022-11-30T14:27:55.683Z,22.40
2022-11-30T14:30:58.023Z,26.17
2022-11-30T14:34:15.015Z,25.07
2022-11-30T14:37:24.040Z,24.63
2022-11-30T14:40:30.466Z,23.63
2022-11-30T14:43:32.362Z,25.37
2022-11-30T14:46:36.054Z,24.63
2022-11-30T14:49:46.332Z,26.43
2022-11-30T14:53:06.438Z,25.53
2022-11-30T14:56:33.778Z,23.37
2022-11-30T14:59:55.827Z,25.10
2022-11-30T15:02:58.006Z,25.83
2022-11-30T15:06:02.132Z,26.73
2022-11-30T15:09:04.971Z,25.47
2022-11-30T15:12:07.088Z,25.80
2022-11-30T15:15:24.777Z,23.93
2022-11-30T15:18:26.958Z,24.77
2022-11-30T15:21:31.864Z,24.03
2022-11-30T15:24:33.745Z,25.33
2022-11-30T15:27:35.991Z,24.20
2022-11-30T15:30:40.798Z,22.80
2022-11-30T15:33:45.819Z,24.93
2022-11-30T15:36:47.937Z,24.37
2022-11-30T15:39:52.983Z,28.33
2022-11-30T15:42:55.052Z,27.03
2022-11-30T15:45:58.931Z,28.37
2022-11-30T15:49:19.024Z,28.97
2022-11-30T15:52:26.858Z,27.70
2022-11-30T15:55:46.092Z,25.37
2022-11-30T15:59:02.082Z,26.17
2022-11-30T16:02:14.834Z,26.67
2022-11-30T16:05:18.030Z,26.37
2022-11-30T16:08:19.974Z,24.27
2022-11-30T16:11:21.973Z,24.03
2022-11-30T16:14:24.408Z,23.10
2022-11-30T16:17:28.728Z,25.90
2022-11-30T16:20:31.096Z,25.87
2022-11-30T16:23:36.372Z,28.67
2022-11-30T16:26:53.609Z,24.37
2022-11-30T16:29:56.415Z,24.07
2022-11-30T16:32:59.117Z,26.57
2022-11-30T16:36:15.190Z,30.77
2022-11-30T16:39:17.119Z,24.33
2022-11-30T16:42:19.540Z,26.33
2022-11-30T16:45:23.592Z,24.60
2022-11-30T16:48:26.040Z,22.80
2022-11-30T16:51:32.522Z,24.23
2022-11-30T16:54:34.637Z,22.67
2022-11-30T16:57:36.484Z,22.80
2022-11-30T17:00:40.239Z,23.73
2022-11-30T17:03:46.323Z,23.47
2022-11-30T17:06:50.729Z,22.30
2022-11-30T17:09:53.618Z,23.13
2022-11-30T17:12:55.798Z,22.93
2022-11-30T17:15:57.684Z,23.80
2022-11-30T17:18:59.897Z,22.67
2022-11-30T17:22:02.027Z,23.17
2022-11-30T17:25:05.418Z,22.67
2022-11-30T17:28:07.319Z,23.17
2022-11-30T17:31:10.907Z,24.50
2022-11-30T17:34:12.983Z,24.47
2022-11-30T17:37:14.876Z,25.90
2022-11-30T17:40:17.050Z,24.23
2022-11-30T17:43:18.903Z,24.97
2022-11-30T17:46:21.654Z,23.80
2022-11-30T17:49:24.323Z,23.07
2022-11-30T17:52:26.412Z,23.90
2022-11-30T17:55:28.358Z,23.23
2022-11-30T17:58:34.630Z,23.43
2022-11-30T18:01:38.465Z,23.53
2022-11-30T18:04:40.679Z,23.23
2022-11-30T18:07:42.536Z,24.67
2022-11-30T18:10:47.123Z,24.00
2022-11-30T18:13:52.092Z,25.10
2022-11-30T18:16:54.118Z,23.13
2022-11-30T18:19:56.045Z,23.67
2022-11-30T18:22:57.972Z,23.00
2022-11-30T18:25:59.864Z,21.93
2022-11-30T18:29:02.815Z,23.07
2022-11-30T18:32:05.143Z,22.13
2022-11-30T18:35:08.323Z,23.43
2022-11-30T18:38:10.195Z,22.53
2022-11-30T18:41:12.673Z,24.00
2022-11-30T18:44:14.602Z,22.87
2022-11-30T18:47:16.792Z,24.33
2022-11-30T18:50:18.732Z,22.67
2022-11-30T18:53:20.691Z,22.90
2022-11-30T18:56:22.629Z,24.70
2022-11-30T18:59:24.649Z,23.43
2022-11-30T19:02:26.632Z,22.93
2022-11-30T19:05:40.307Z,22.77
2022-11-30T19:08:42.290Z,21.57
2022-11-30T19:11:44.973Z,24.23
2022-11-30T19:14:47.070Z,22.03
2022-11-30T19:17:49.272Z,22.97
2022-11-30T19:20:51.186Z,23.93
2022-11-30T19:23:53.475Z,22.47
2022-11-30T19:26:55.345Z,23.10
2022-11-30T19:29:57.349Z,25.03
2022-11-30T19:32:59.195Z,24.73
2022-11-30T19:36:02.544Z,24.37
2022-11-30T19:39:04.763Z,24.07
2022-11-30T19:42:07.710Z,24.13
2022-11-30T19:45:10.292Z,24.20
2022-11-30T19:48:12.966Z,22.87
2022-11-30T19:51:18.631Z,22.97
2022-11-30T19:54:21.625Z,21.13
2022-11-30T19:57:23.513Z,21.63
2022-11-30T20:00:26.093Z,21.97
2022-11-30T20:03:28.176Z,23.00
2022-11-30T20:06:36.282Z,22.20
2022-11-30T20:09:38.607Z,22.70
2022-11-30T20:12:41.341Z,23.13
2022-11-30T20:15:43.594Z,22.40
2022-11-30T20:18:52.493Z,23.50
2022-11-30T20:21:54.434Z,23.13
2022-11-30T20:24:56.515Z,22.37
2022-11-30T20:27:59.563Z,22.50
2022-11-30T20:31:04.394Z,23.17
2022-11-30T20:34:08.313Z,23.87
2022-11-30T20:37:11.024Z,21.83
2022-11-30T20:40:13.123Z,21.67
2022-11-30T20:43:15.693Z,21.73
2022-11-30T20:46:20.958Z,21.00
2022-11-30T20:49:23.056Z,22.00
2022-11-30T20:52:24.928Z,20.90
2022-11-30T20:55:26.993Z,23.40
2022-11-30T20:58:29.063Z,22.47
2022-11-30T21:01:31.170Z,22.47
2022-11-30T21:04:33.197Z,21.90
2022-11-30T21:07:35.444Z,24.17
2022-11-30T21:10:40.990Z,23.80
2022-11-30T21:13:44.490Z,23.47
2022-11-30T21:16:46.599Z,21.37
2022-11-30T21:19:48.568Z,24.47
2022-11-30T21:22:51.380Z,22.97
2022-11-30T21:25:53.344Z,23.63
2022-11-30T21:28:59.997Z,23.67
2022-11-30T21:32:01.966Z,22.87
2022-11-30T21:35:03.960Z,23.13
2022-11-30T21:38:05.923Z,22.33
2022-11-30T21:41:07.954Z,22.53
2022-11-30T21:44:14.172Z,23.37
2022-11-30T21:47:16.100Z,21.83
2022-11-30T21:50:21.795Z,23.20
2022-11-30T21:53:27.094Z,21.03
2022-11-30T21:56:34.978Z,22.17
2022-11-30T21:59:36.849Z,21.20
2022-11-30T22:02:38.939Z,22.23
2022-11-30T22:05:40.853Z,23.53
2022-11-30T22:08:43.143Z,22.23
2022-11-30T22:11:45.833Z,22.00
2022-11-30T22:14:47.854Z,24.90
2022-11-30T22:17:52.073Z,23.00
2022-11-30T22:21:03.467Z,22.90
2022-11-30T22:24:07.899Z,22.20
2022-11-30T22:27:09.892Z,22.00
2022-11-30T22:30:12.390Z,21.90
2022-11-30T22:33:16.209Z,23.37
2022-11-30T22:36:22.994Z,22.00
2022-11-30T22:39:24.894Z,20.73
2022-11-30T22:42:26.703Z,22.07
2022-11-30T22:45:31.120Z,23.93
2022-11-30T22:48:34.693Z,22.60
2022-11-30T22:51:38.353Z,22.53
2022-11-30T22:54:40.256Z,22.27
2022-11-30T22:57:42.754Z,22.27
2022-11-30T23:00:44.643Z,23.13
2022-11-30T23:03:48.175Z,24.03
2022-11-30T23:06:50.504Z,23.00
2022-11-30T23:09:52.633Z,23.97
2022-11-30T23:13:01.456Z,23.63
2022-11-30T23:16:04.993Z,23.53
2022-11-30T23:19:07.125Z,24.50
2022-11-30T23:22:09.060Z,23.57
2022-11-30T23:25:10.939Z,25.07
2022-11-30T23:28:12.828Z,24.20
2022-11-30T23:31:34.347Z,21.83
2022-11-30T23:34:37.864Z,22.83
2022-11-30T23:37:39.689Z,24.70
2022-11-30T23:40:41.660Z,22.17
2022-11-30T23:43:43.595Z,24.63
2022-11-30T23:46:45.669Z,24.27
2022-11-30T23:49:47.800Z,24.17
2022-11-30T23:52:49.990Z,22.33
2022-11-30T23:55:52.672Z,23.60
2022-11-30T23:58:54.690Z,23.43
